createdAt,value
2022-11-07T00:00:29.949Z,24.60
2022-11-07T00:02:57.114Z,25.00
2022-11-07T00:05:24.239Z,23.90
2022-11-07T00:07:51.379Z,24.85
2022-11-07T00:10:18.474Z,32.13
2022-11-07T00:12:45.595Z,30.98
2022-11-07T00:15:12.725Z,29.60
2022-11-07T00:17:39.817Z,29.33
2022-11-07T00:20:07.270Z,28.30
2022-11-07T00:22:34.409Z,27.35
2022-11-07T00:25:01.504Z,25.23
2022-11-07T00:27:28.673Z,24.63
2022-11-07T00:29:55.904Z,24.45
2022-11-07T00:32:23.065Z,23.35
2022-11-07T00:34:50.155Z,22.85
2022-11-07T00:37:17.278Z,20.92
2022-11-07T00:39:44.445Z,20.77
2022-11-07T00:42:11.553Z,21.23
2022-11-07T00:44:38.678Z,20.20
2022-11-07T00:47:05.802Z,22.23
2022-11-07T00:49:32.957Z,20.65
2022-11-07T00:52:00.118Z,20.05
2022-11-07T00:54:27.212Z,25.33
2022-11-07T00:56:54.347Z,29.38
2022-11-07T00:59:21.461Z,24.20
2022-11-07T01:01:48.646Z,25.20
2022-11-07T01:04:34.344Z,25.13
2022-11-07T01:07:02.015Z,26.67
2022-11-07T01:09:29.127Z,21.27
2022-11-07T01:11:56.285Z,18.70
2022-11-07T01:14:23.660Z,22.17
2022-11-07T01:16:51.065Z,19.27
2022-11-07T01:19:18.757Z,17.05
2022-11-07T01:21:45.980Z,18.13
2022-11-07T01:24:13.355Z,19.08
2022-11-07T01:26:40.533Z,20.45
2022-11-07T01:29:07.642Z,21.20
2022-11-07T01:31:34.811Z,24.33
2022-11-07T01:34:02.102Z,24.25
2022-11-07T01:36:29.301Z,24.88
2022-11-07T01:38:56.390Z,25.65
2022-11-07T01:41:25.545Z,22.45
2022-11-07T01:43:57.212Z,18.80
2022-11-07T01:46:33.497Z,18.55
2022-11-07T01:49:02.049Z,18.70
2022-11-07T01:51:29.448Z,19.67
2022-11-07T01:53:56.650Z,20.63
2022-11-07T01:56:25.252Z,23.40
2022-11-07T01:58:52.537Z,25.10
2022-11-07T02:01:19.710Z,19.52
2022-11-07T02:03:47.013Z,21.53
2022-11-07T02:06:35.981Z,19.45
2022-11-07T02:09:03.144Z,23.55
2022-11-07T02:11:30.274Z,25.25
2022-11-07T02:13:57.402Z,26.58
2022-11-07T02:16:24.539Z,25.37
2022-11-07T02:18:51.637Z,20.40
2022-11-07T02:21:21.316Z,19.67
2022-11-07T02:23:59.089Z,20.30
2022-11-07T02:26:26.353Z,20.27
2022-11-07T02:28:53.481Z,21.83
2022-11-07T02:31:20.578Z,21.88
2022-11-07T02:33:47.701Z,25.37
2022-11-07T02:36:18.639Z,27.47
2022-11-07T02:38:45.717Z,27.67
2022-11-07T02:41:14.188Z,29.57
2022-11-07T02:43:42.299Z,27.53
2022-11-07T02:46:09.976Z,28.30
2022-11-07T02:48:44.403Z,31.70
2022-11-07T02:51:11.524Z,29.80
2022-11-07T02:53:38.616Z,26.67
2022-11-07T02:56:06.080Z,25.73
2022-11-07T02:58:33.344Z,24.73
2022-11-07T03:01:07.089Z,22.83
2022-11-07T03:03:38.963Z,23.80
2022-11-07T03:06:06.714Z,25.83
2022-11-07T03:08:34.633Z,26.10
2022-11-07T03:11:01.991Z,23.77
2022-11-07T03:13:29.162Z,25.58
2022-11-07T03:15:56.279Z,27.10
2022-11-07T03:18:23.382Z,25.67
2022-11-07T03:20:50.491Z,26.97
2022-11-07T03:23:17.821Z,27.87
2022-11-07T03:25:45.203Z,27.58
2022-11-07T03:28:12.325Z,29.77
2022-11-07T03:30:39.420Z,29.73
2022-11-07T03:33:06.525Z,24.83
2022-11-07T03:35:33.645Z,26.20
2022-11-07T03:38:00.793Z,26.07
2022-11-07T03:40:28.524Z,25.27
2022-11-07T03:42:55.654Z,24.03
2022-11-07T03:45:22.760Z,24.52
2022-11-07T03:47:49.928Z,25.07
2022-11-07T03:50:20.605Z,23.57
2022-11-07T03:52:48.074Z,24.70
2022-11-07T03:55:18.577Z,23.77
2022-11-07T03:57:45.939Z,23.10
2022-11-07T04:00:13.434Z,23.70
2022-11-07T04:02:40.769Z,24.83
2022-11-07T04:05:08.104Z,25.30
2022-11-07T04:07:35.221Z,25.10
2022-11-07T04:10:02.374Z,26.23
2022-11-07T04:12:48.203Z,26.30
2022-11-07T04:15:34.148Z,26.35
2022-11-07T04:18:01.254Z,22.95
2022-11-07T04:20:28.611Z,26.90
2022-11-07T04:22:55.884Z,28.13
2022-11-07T04:25:42.953Z,27.00
2022-11-07T04:28:10.064Z,26.33
2022-11-07T04:30:37.142Z,25.85
2022-11-07T04:33:04.310Z,26.67
2022-11-07T04:35:32.083Z,25.95
2022-11-07T04:37:59.397Z,28.00
2022-11-07T04:40:26.641Z,30.00
2022-11-07T04:42:54.273Z,30.08
2022-11-07T04:45:21.394Z,28.95
2022-11-07T04:47:48.553Z,27.98
2022-11-07T04:50:16.422Z,27.38
2022-11-07T04:52:43.498Z,27.17
2022-11-07T04:55:10.861Z,27.20
2022-11-07T04:57:37.934Z,26.73
2022-11-07T05:00:05.229Z,29.33
2022-11-07T05:02:32.432Z,28.88
2022-11-07T05:04:59.568Z,29.75
2022-11-07T05:07:26.631Z,31.70
2022-11-07T05:09:53.754Z,37.15
2022-11-07T05:12:20.844Z,38.90
2022-11-07T05:14:47.917Z,35.63
2022-11-07T05:17:15.392Z,34.42
2022-11-07T05:19:45.671Z,39.33
2022-11-07T05:22:31.398Z,40.75
2022-11-07T05:24:58.485Z,37.65
2022-11-07T05:27:25.669Z,34.10
2022-11-07T05:29:52.821Z,32.15
2022-11-07T05:32:19.979Z,37.50
2022-11-07T05:34:47.091Z,43.00
2022-11-07T05:37:14.286Z,41.55
2022-11-07T05:39:41.392Z,40.10
2022-11-07T05:42:08.461Z,41.35
2022-11-07T05:44:35.619Z,36.88
2022-11-07T05:47:02.717Z,35.60
2022-11-07T05:49:29.840Z,36.78
2022-11-07T05:51:57.596Z,34.22
2022-11-07T05:54:24.804Z,36.92
2022-11-07T05:56:51.920Z,35.95
2022-11-07T05:59:19.981Z,37.80
2022-11-07T06:01:50.918Z,37.97
2022-11-07T06:04:18.517Z,38.38
2022-11-07T06:06:45.621Z,39.70
2022-11-07T06:09:12.751Z,39.13
2022-11-07T06:11:39.859Z,36.58
2022-11-07T06:14:07.029Z,37.35
2022-11-07T06:16:34.145Z,39.78
2022-11-07T06:19:01.309Z,37.70
2022-11-07T06:21:28.435Z,38.72
2022-11-07T06:23:55.531Z,39.70
2022-11-07T06:26:22.612Z,43.70
2022-11-07T06:28:50.039Z,47.83
2022-11-07T06:31:17.164Z,38.95
2022-11-07T06:33:44.237Z,37.95
2022-11-07T06:36:12.159Z,36.15
2022-11-07T06:38:39.522Z,36.30
2022-11-07T06:41:10.635Z,34.95
2022-11-07T06:43:37.889Z,33.38
2022-11-07T06:46:05.546Z,35.67
2022-11-07T06:48:32.681Z,42.30
2022-11-07T06:51:00.234Z,57.83
2022-11-07T06:53:27.647Z,50.03
2022-11-07T06:55:54.908Z,46.17
2022-11-07T06:58:22.265Z,39.85
2022-11-07T07:00:49.441Z,40.03
2022-11-07T07:03:17.092Z,46.13
2022-11-07T07:05:44.468Z,48.53
2022-11-07T07:08:13.013Z,48.67
2022-11-07T07:10:41.519Z,55.28
2022-11-07T07:13:08.628Z,54.00
2022-11-07T07:15:49.740Z,71.88
2022-11-07T07:18:18.817Z,79.25
2022-11-07T07:20:46.072Z,96.47
2022-11-07T07:23:13.216Z,116.07
2022-11-07T07:25:40.376Z,98.82
2022-11-07T07:28:07.465Z,86.60
2022-11-07T07:30:34.552Z,88.28
2022-11-07T07:33:01.720Z,87.97
2022-11-07T07:35:28.927Z,74.35
2022-11-07T07:37:56.021Z,72.53
2022-11-07T07:40:23.138Z,75.10
2022-11-07T07:42:50.280Z,72.80
2022-11-07T07:45:17.461Z,55.67
2022-11-07T07:47:44.582Z,43.10
2022-11-07T07:50:12.138Z,40.38
2022-11-07T07:52:39.261Z,25.17
2022-11-07T07:55:09.097Z,12.07
2022-11-07T07:57:40.030Z,9.75
2022-11-07T08:00:07.465Z,8.38
2022-11-07T08:02:34.797Z,8.82
2022-11-07T08:05:02.000Z,7.43
2022-11-07T08:07:29.099Z,4.70
2022-11-07T08:09:59.347Z,5.03
2022-11-07T08:12:29.213Z,3.92
2022-11-07T08:14:56.366Z,4.13
2022-11-07T08:17:23.436Z,4.28
2022-11-07T08:19:50.571Z,3.80
2022-11-07T08:22:17.686Z,4.55
2022-11-07T08:24:44.812Z,4.00
2022-11-07T08:27:11.936Z,3.78
2022-11-07T08:29:39.047Z,3.95
2022-11-07T08:32:06.199Z,3.92
2022-11-07T08:34:33.309Z,3.88
2022-11-07T08:37:00.421Z,3.58
2022-11-07T08:39:27.493Z,3.90
2022-11-07T08:41:54.608Z,3.40
2022-11-07T08:44:21.732Z,4.07
2022-11-07T08:46:48.845Z,4.30
2022-11-07T08:49:16.056Z,3.88
2022-11-07T08:51:43.209Z,4.85
2022-11-07T08:54:11.688Z,3.85
2022-11-07T08:56:38.787Z,4.50
2022-11-07T08:59:05.913Z,4.50
2022-11-07T09:01:33.128Z,4.35
2022-11-07T09:04:00.523Z,3.65
2022-11-07T09:06:27.805Z,4.35
2022-11-07T09:08:54.881Z,3.83
2022-11-07T09:11:22.126Z,4.00
2022-11-07T09:13:49.313Z,3.72
2022-11-07T09:16:17.533Z,3.35
2022-11-07T09:18:44.971Z,4.15
2022-11-07T09:21:12.138Z,4.32
2022-11-07T09:23:39.842Z,4.10
2022-11-07T09:26:07.379Z,5.43
2022-11-07T09:28:34.545Z,3.30
2022-11-07T09:31:02.716Z,3.33
2022-11-07T09:33:30.033Z,3.15
2022-11-07T09:36:06.206Z,4.53
2022-11-07T09:38:33.373Z,3.38
2022-11-07T09:41:08.021Z,2.15
2022-11-07T09:43:39.891Z,2.35
2022-11-07T09:46:12.897Z,2.35
2022-11-07T09:48:42.416Z,2.30
2022-11-07T09:51:11.680Z,2.20
2022-11-07T09:53:40.631Z,2.50
2022-11-07T09:56:07.863Z,2.10
2022-11-07T09:58:38.778Z,2.20
2022-11-07T10:01:07.128Z,2.38
2022-11-07T10:03:35.147Z,2.25
2022-11-07T10:06:07.437Z,2.22
2022-11-07T10:08:37.893Z,3.00
2022-11-07T10:11:07.311Z,3.20
2022-11-07T10:13:47.069Z,2.38
2022-11-07T10:16:33.009Z,2.20
2022-11-07T10:19:21.031Z,2.20
2022-11-07T10:22:00.234Z,1.98
2022-11-07T10:24:30.082Z,2.20
2022-11-07T10:26:58.315Z,2.00
2022-11-07T10:29:28.718Z,2.55
2022-11-07T10:31:56.152Z,2.75
2022-11-07T10:34:28.609Z,2.40
2022-11-07T10:36:55.716Z,2.50
2022-11-07T10:39:22.798Z,5.57
2022-11-07T10:41:58.473Z,1.80
2022-11-07T10:44:25.555Z,2.00
2022-11-07T10:46:54.633Z,1.92
2022-11-07T10:49:25.156Z,1.70
2022-11-07T10:51:52.559Z,1.80
2022-11-07T10:54:27.465Z,1.60
2022-11-07T10:57:04.843Z,1.48
2022-11-07T10:59:36.167Z,1.65
2022-11-07T11:02:04.127Z,1.90
2022-11-07T11:04:32.574Z,1.73
2022-11-07T11:07:00.569Z,1.48
2022-11-07T11:09:31.327Z,1.45
2022-11-07T11:11:58.564Z,1.90
2022-11-07T11:14:25.644Z,2.55
2022-11-07T11:16:54.659Z,2.08
2022-11-07T11:19:23.626Z,2.60
2022-11-07T11:21:51.405Z,2.40
2022-11-07T11:24:24.611Z,2.13
2022-11-07T11:26:51.830Z,2.22
2022-11-07T11:29:25.158Z,1.60
2022-11-07T11:31:52.564Z,1.50
2022-11-07T11:34:26.561Z,1.80
2022-11-07T11:37:05.435Z,2.10
2022-11-07T11:39:34.786Z,2.08
2022-11-07T11:42:01.869Z,1.83
2022-11-07T11:44:38.813Z,1.80
2022-11-07T11:47:10.149Z,1.70
2022-11-07T11:49:38.714Z,2.10
2022-11-07T11:52:14.575Z,3.10
2022-11-07T11:54:41.675Z,2.70
2022-11-07T11:57:10.481Z,4.50
2022-11-07T11:59:56.499Z,1.95
2022-11-07T12:02:35.895Z,2.38
2022-11-07T12:05:09.232Z,2.05
2022-11-07T12:07:39.126Z,4.38
2022-11-07T12:10:13.318Z,2.60
2022-11-07T12:12:40.411Z,2.50
2022-11-07T12:15:10.402Z,2.13
2022-11-07T12:17:48.173Z,2.00
2022-11-07T12:20:21.995Z,2.00
2022-11-07T12:22:51.927Z,2.08
2022-11-07T12:25:27.473Z,2.00
2022-11-07T12:28:13.376Z,2.25
2022-11-07T12:31:12.879Z,1.92
2022-11-07T12:33:39.986Z,2.28
2022-11-07T12:36:25.997Z,1.60
2022-11-07T12:39:02.442Z,1.90
2022-11-07T12:41:44.481Z,2.38
2022-11-07T12:44:24.113Z,2.45
2022-11-07T12:46:58.396Z,1.60
2022-11-07T12:49:31.597Z,2.10
2022-11-07T12:52:34.402Z,2.40
2022-11-07T12:55:13.540Z,2.53
2022-11-07T12:57:40.610Z,2.17
2022-11-07T13:00:30.291Z,1.80
2022-11-07T13:03:12.469Z,2.70
2022-11-07T13:05:39.637Z,2.50
2022-11-07T13:08:09.780Z,2.10
2022-11-07T13:10:55.637Z,2.47
2022-11-07T13:13:25.986Z,2.10
2022-11-07T13:16:14.481Z,2.35
2022-11-07T13:21:07.614Z,3.10
2022-11-07T13:23:34.737Z,2.17
2022-11-07T13:26:10.652Z,2.65
2022-11-07T13:28:58.508Z,2.30
2022-11-07T13:31:34.760Z,2.33
2022-11-07T13:34:20.001Z,2.17
2022-11-07T13:36:47.784Z,2.38
2022-11-07T13:39:14.862Z,2.42
2022-11-07T13:41:44.477Z,2.25
2022-11-07T13:44:25.971Z,2.10
2022-11-07T13:46:53.476Z,2.08
2022-11-07T13:49:26.690Z,2.22
2022-11-07T13:51:54.121Z,2.42
2022-11-07T13:54:30.237Z,2.35
2022-11-07T13:57:06.185Z,2.03
2022-11-07T13:59:36.661Z,2.25
2022-11-07T14:02:04.297Z,3.55
2022-11-07T14:04:39.839Z,2.80
2022-11-07T14:07:11.557Z,2.53
2022-11-07T14:09:38.647Z,3.25
2022-11-07T14:12:05.822Z,3.80
2022-11-07T14:14:32.896Z,3.10
2022-11-07T14:17:01.069Z,2.75
2022-11-07T14:19:30.247Z,2.70
2022-11-07T14:21:57.409Z,5.65
2022-11-07T14:24:33.987Z,16.02
2022-11-07T14:27:05.317Z,19.92
2022-11-07T14:29:32.688Z,22.55
2022-11-07T14:32:00.714Z,11.68
2022-11-07T14:34:27.868Z,12.43
2022-11-07T14:36:56.098Z,9.98
2022-11-07T14:39:23.676Z,2.90
2022-11-07T14:41:50.832Z,2.90
2022-11-07T14:44:36.294Z,2.70
2022-11-07T14:47:10.214Z,3.80
2022-11-07T14:49:40.960Z,4.50
2022-11-07T14:52:11.634Z,3.83
2022-11-07T14:54:42.614Z,3.78
2022-11-07T14:57:09.830Z,3.95
2022-11-07T14:59:36.889Z,3.30
2022-11-07T15:02:19.375Z,3.10
2022-11-07T15:04:47.094Z,4.47
2022-11-07T15:07:33.202Z,3.78
2022-11-07T15:10:11.570Z,3.78
2022-11-07T15:12:48.625Z,3.65
2022-11-07T15:15:19.759Z,3.20
2022-11-07T15:17:47.948Z,5.28
2022-11-07T15:20:38.479Z,3.15
2022-11-07T15:23:14.413Z,2.95
2022-11-07T15:25:42.958Z,3.85
2022-11-07T15:28:19.822Z,3.75
2022-11-07T15:30:47.168Z,7.43
2022-11-07T15:33:14.329Z,5.35
2022-11-07T15:35:44.524Z,5.10
2022-11-07T15:38:22.196Z,6.10
2022-11-07T15:40:49.371Z,4.70
2022-11-07T15:43:16.469Z,3.70
2022-11-07T15:45:43.615Z,6.40
2022-11-07T15:48:13.743Z,8.32
2022-11-07T15:50:42.308Z,9.27
2022-11-07T15:53:29.698Z,10.40
2022-11-07T15:55:59.789Z,12.30
2022-11-07T15:58:27.493Z,16.40
2022-11-07T16:00:54.675Z,23.77
2022-11-07T16:03:22.835Z,19.45
2022-11-07T16:05:50.385Z,16.08
2022-11-07T16:08:19.744Z,17.35
2022-11-07T16:10:47.726Z,14.70
2022-11-07T16:13:14.883Z,13.20
2022-11-07T16:15:42.539Z,11.38
2022-11-07T16:18:14.010Z,8.77
2022-11-07T16:20:41.324Z,7.78
2022-11-07T16:23:09.172Z,7.57
2022-11-07T16:25:36.247Z,7.45
2022-11-07T16:28:03.378Z,5.80
2022-11-07T16:30:30.613Z,7.88
2022-11-07T16:32:57.720Z,7.50
2022-11-07T16:35:24.793Z,13.13
2022-11-07T16:37:51.957Z,15.07
2022-11-07T16:40:19.553Z,28.63
2022-11-07T16:42:47.478Z,28.02
2022-11-07T16:45:15.075Z,26.70
2022-11-07T16:47:44.010Z,29.13
2022-11-07T16:50:13.145Z,22.42
2022-11-07T16:52:40.431Z,19.63
2022-11-07T16:55:07.773Z,20.08
2022-11-07T16:57:35.626Z,15.68
2022-11-07T17:00:04.517Z,15.45
2022-11-07T17:02:31.779Z,16.20
2022-11-07T17:04:58.961Z,13.10
2022-11-07T17:07:26.076Z,12.13
2022-11-07T17:09:53.160Z,8.57
2022-11-07T17:12:23.426Z,7.38
2022-11-07T17:14:50.956Z,7.13
2022-11-07T17:17:18.521Z,6.63
2022-11-07T17:19:45.676Z,5.68
2022-11-07T17:22:12.924Z,5.50
2022-11-07T17:24:40.298Z,6.90
2022-11-07T17:27:16.039Z,6.95
2022-11-07T17:29:43.108Z,6.75
2022-11-07T17:32:10.192Z,5.35
2022-11-07T17:34:37.298Z,5.75
2022-11-07T17:37:04.369Z,5.95
2022-11-07T17:39:31.450Z,6.22
2022-11-07T17:41:58.931Z,7.35
2022-11-07T17:44:26.036Z,7.30
2022-11-07T17:46:53.165Z,5.63
2022-11-07T17:49:22.002Z,5.50
2022-11-07T17:51:49.210Z,5.75
2022-11-07T17:54:16.317Z,5.82
2022-11-07T17:56:43.457Z,5.95
2022-11-07T17:59:14.616Z,5.18
2022-11-07T18:01:41.984Z,4.88
2022-11-07T18:04:09.605Z,5.10
2022-11-07T18:06:37.345Z,5.35
2022-11-07T18:09:04.862Z,5.13
2022-11-07T18:11:31.965Z,5.45
2022-11-07T18:13:59.365Z,5.47
2022-11-07T18:16:27.296Z,5.18
2022-11-07T18:18:54.401Z,6.25
2022-11-07T18:21:21.540Z,8.73
2022-11-07T18:23:48.690Z,8.07
2022-11-07T18:26:17.360Z,9.52
2022-11-07T18:28:44.649Z,5.50
2022-11-07T18:31:15.323Z,5.80
2022-11-07T18:33:42.592Z,16.80
2022-11-07T18:36:12.899Z,17.90
2022-11-07T18:38:40.017Z,11.03
2022-11-07T18:41:07.973Z,11.50
2022-11-07T18:43:35.341Z,18.33
2022-11-07T18:46:02.533Z,24.65
2022-11-07T18:48:30.004Z,22.98
2022-11-07T18:50:57.090Z,29.13
2022-11-07T18:53:24.503Z,33.38
2022-11-07T18:55:58.442Z,37.30
2022-11-07T18:58:25.605Z,34.53
2022-11-07T19:00:52.741Z,31.48
2022-11-07T19:03:19.880Z,39.33
2022-11-07T19:05:47.307Z,48.70
2022-11-07T19:08:14.690Z,52.17
2022-11-07T19:10:42.193Z,50.15
2022-11-07T19:13:09.331Z,42.28
2022-11-07T19:15:39.712Z,46.63
2022-11-07T19:18:06.820Z,64.35
2022-11-07T19:20:33.960Z,65.43
2022-11-07T19:23:01.032Z,57.03
2022-11-07T19:25:28.152Z,63.53
2022-11-07T19:27:55.248Z,62.85
2022-11-07T19:30:22.435Z,69.53
2022-11-07T19:32:51.268Z,71.63
2022-11-07T19:35:19.258Z,68.43
2022-11-07T19:37:46.345Z,61.93
2022-11-07T19:40:13.520Z,69.33
2022-11-07T19:42:40.588Z,82.93
2022-11-07T19:45:07.762Z,92.87
2022-11-07T19:47:34.881Z,94.87
2022-11-07T19:50:02.000Z,89.63
2022-11-07T19:52:29.068Z,82.80
2022-11-07T19:54:56.208Z,61.88
2022-11-07T19:57:23.417Z,69.97
2022-11-07T19:59:50.507Z,83.65
2022-11-07T20:02:32.349Z,66.03
2022-11-07T20:05:00.367Z,63.90
2022-11-07T20:07:27.468Z,61.03
2022-11-07T20:09:55.012Z,82.83
2022-11-07T20:12:22.097Z,75.88
2022-11-07T20:14:49.204Z,108.73
2022-11-07T20:17:16.269Z,76.33
2022-11-07T20:19:43.331Z,103.00
2022-11-07T20:22:13.436Z,89.97
2022-11-07T20:24:40.533Z,82.87
2022-11-07T20:27:07.605Z,88.00
2022-11-07T20:29:34.713Z,84.13
2022-11-07T20:32:01.798Z,77.50
2022-11-07T20:34:28.899Z,59.60
2022-11-07T20:36:56.049Z,54.75
2022-11-07T20:39:23.117Z,59.47
2022-11-07T20:41:50.185Z,59.87
2022-11-07T20:44:17.369Z,62.97
2022-11-07T20:46:44.977Z,61.57
2022-11-07T20:49:13.343Z,60.03
2022-11-07T20:51:40.662Z,60.10
2022-11-07T20:54:07.965Z,55.83
2022-11-07T20:56:35.116Z,69.10
2022-11-07T20:59:02.240Z,84.33
2022-11-07T21:01:35.804Z,83.47
2022-11-07T21:04:06.745Z,51.23
2022-11-07T21:06:34.084Z,52.03
2022-11-07T21:09:01.213Z,53.03
2022-11-07T21:11:28.934Z,46.90
2022-11-07T21:13:56.085Z,44.37
2022-11-07T21:16:23.186Z,44.47
2022-11-07T21:18:51.018Z,37.60
2022-11-07T21:21:20.279Z,39.60
2022-11-07T21:23:47.742Z,41.37
2022-11-07T21:26:15.773Z,37.03
2022-11-07T21:28:42.930Z,38.07
2022-11-07T21:31:11.069Z,36.40
2022-11-07T21:33:38.978Z,37.30
2022-11-07T21:36:13.112Z,33.60
2022-11-07T21:38:40.271Z,33.72
2022-11-07T21:41:07.964Z,35.97
2022-11-07T21:43:35.142Z,38.27
2022-11-07T21:46:08.266Z,37.33
2022-11-07T21:48:35.753Z,35.43
2022-11-07T21:51:09.151Z,40.70
2022-11-07T21:53:37.937Z,35.87
2022-11-07T21:56:05.631Z,37.70
2022-11-07T21:58:32.782Z,34.73
2022-11-07T22:01:03.387Z,30.53
2022-11-07T22:03:51.574Z,31.93
2022-11-07T22:06:20.626Z,29.27
2022-11-07T22:08:48.256Z,34.17
2022-11-07T22:11:15.461Z,33.67
2022-11-07T22:13:42.656Z,35.83
2022-11-07T22:16:13.633Z,35.37
2022-11-07T22:18:40.823Z,38.27
2022-11-07T22:21:08.164Z,41.27
2022-11-07T22:23:35.675Z,60.00
2022-11-07T22:26:06.426Z,58.93
2022-11-07T22:28:33.638Z,48.33
2022-11-07T22:31:04.849Z,51.63
2022-11-07T22:33:32.019Z,47.07
2022-11-07T22:36:02.581Z,52.13
2022-11-07T22:38:30.697Z,77.87
2022-11-07T22:40:57.825Z,65.30
2022-11-07T22:43:25.700Z,54.40
2022-11-07T22:45:52.977Z,37.00
2022-11-07T22:48:20.073Z,27.67
2022-11-07T22:50:47.972Z,30.23
2022-11-07T22:53:15.438Z,30.80
2022-11-07T22:55:42.865Z,25.07
2022-11-07T22:58:10.005Z,25.50
2022-11-07T23:00:37.116Z,26.00
2022-11-07T23:03:04.316Z,26.23
2022-11-07T23:05:31.489Z,25.60
2022-11-07T23:07:58.601Z,22.20
2022-11-07T23:10:25.694Z,24.83
2022-11-07T23:12:52.920Z,29.07
2022-11-07T23:15:20.077Z,26.27
2022-11-07T23:17:47.189Z,24.50
2022-11-07T23:20:34.261Z,22.00
2022-11-07T23:23:03.272Z,21.90
2022-11-07T23:25:30.388Z,24.13
2022-11-07T23:27:57.529Z,23.93
2022-11-07T23:30:24.675Z,26.07
2022-11-07T23:32:51.764Z,22.67
2022-11-07T23:35:18.893Z,21.57
2022-11-07T23:37:46.042Z,20.03
2022-11-07T23:40:13.524Z,21.57
2022-11-07T23:42:40.702Z,21.20
2022-11-07T23:45:26.745Z,20.97
2022-11-07T23:48:12.670Z,21.77
2022-11-07T23:50:58.501Z,21.67
2022-11-07T23:53:44.409Z,20.40
2022-11-07T23:56:11.528Z,20.50
2022-11-07T23:58:57.174Z,20.67
